ADDS TAF Data INFO
IDs: Format: Raw Decoded Include METARs

Data at: 1519 UTC 16 Jan 2018

KGCN 161454Z 08006KT 10SM CLR 02/M06 A3031 RMK AO2 SLP256 T00221061 53010

KGCN 161201Z 1612/1712 06012G22KT P6SM SCT150 OVC200
  FM161800 06007KT P6SM SCT150 BKN200
  FM170200 VRB03KT P6SM BKN100 OVC130
  FM170600 VRB06KT P6SM SCT050 OVC100
  PROB30 1706/1712 -SHRA BKN040